Lakeland Linder Regional Airport Lakeland US
ICAO: KLAL
IATA: LAL
Category: Medium
Scheduled Services: No

Elevation: 142 ft
TransAlt. 18000 ft.

Airport Communications:
TAMPA APP/DEP:119.9
ATIS:118.025
CTAF:124.5
GND:121.4
ST PETERSBURG RDO:116
TWR:124.5
UNICOM:122.95

KLAL Zoom In..

Runways:

(A) RW 05 length 5005 ft width 150 ft
---- / hdg 49

(B) RW 09 length 8499 ft width 150 ft
ILS 110.10 / hdg 94

(C) RW 23 length 5005 ft width 150 ft
---- / hdg 229

(D) RW 27 length 8499 ft width 150 ft
---- / hdg 274

Location; KLAL
Day. 30 / Time. 21.50 Zulu
* Altimeter: 29.95
* Temperature: 32° c. 89.6°f.
* Wind from: 330° Speed 10 kn.
Dewpoint: 22° c.
Visibility: 10 Statute Miles.
Clouds: Scattered 4300 ft.

KLAL 302150Z 33010KT 10SM SCT043 32/22 A2995


Wind From 330°
Speed 10 kn.

 
 
jpsmedia worldairports.se 2020   terms of use